Aérodrome :
LOGIN :

S'inscrire | Disclaimer

   EN    FR    IT 

 










Légende :    VFR   VFR Marginal   IFR   IFR Intensif   IFR Très Intensif
Visi : 
Plafond : 
>= 8 km
>= 3000ft
5 à 8 km
1000 à 3000 ft
1500m à 5 km
500 à 1000 ft
800 à 1500m
200 à 500 ft
< 800m
< 200 ft
Symboles :   Orages  Brouillard  Fortes neiges  Fortes précipitations  Vent > 20 kt
SIGMETs :   Divers  Orages  Givrage  Turbulence  Onde Orograph.  Cendres Volcan.







- Altitude de l'aérodrome : 13 ft
- Code IATA : SNR
- Voir les cartes d'approche


LFRZ - St-Nazaire

DERNIER METAR :
  • 241000Z AUTO 24012KT 210V280 9999 BKN030 BKN056 22/13 Q1020 NOSIG

METARs EXPIRÉS :
  • 240930Z AUTO 24012KT 210V280 9999 BKN034 23/14 Q1020 NOSIG
  • 240900Z AUTO 27009KT 240V310 9999 FEW022 SCT030 BKN039 21/13 Q1020 NOSIG
  • 240830Z AUTO 26010KT 230V300 9999 SCT015 BKN023 BKN032 21/14 Q1021 NOSIG
  • 240800Z AUTO 25006KT 9999 SCT016 BKN036 BKN042 19/16 Q1021 NOSIG
  • 240730Z AUTO 24012KT 9999 BKN016 OVC022 18/16 Q1021 NOSIG

TAF TAF LFRZ
Valide du 23 à 18h jusqu'au 24 à 18h UTC


231700Z 2318/2418 27012KT 9999 BKN035
BECMG 2318/2320 CAVOK
BECMG 2403/2405 VRB03KT BKN013
TEMPO 2405/2408 BKN008
BECMG 2409/2412 25011KT BKN020
Pas de NOTAMs connus pour ce terrain.



MET'MAP, la Météo Aéronautique d'un coup d'oeil ! - Copyright ORBIFLY Décembre 2007 - Disclaimer

ORBIFLY MET'MAP TEAM :

Programmation & Développement : Alexandra Zaïnal
Conception & Développement : Baudouin d'Aumeries
Co-Programmation & Développement : Marc-Olivier Méhu
Soutien technique & logistique : Manuel Goepfert

Contact : metmap@orbifly.com




SOURCES & CREDITS :

   NOAA